Aviation Digital Data Service (ADDS)

Output produced by TAFs form (2232 UTC 01 April 2015)
found at http://aviationweather.gov/adds/tafs/
 
KVEL 012147Z 0122/0218 25013G23KT P6SM FEW120 SCT250 
     FM020300 31007KT P6SM SCT250 
     FM020700 02015G25KT P6SM BKN250 
     FM021700 32010G20KT P6SM BKN200